KORD/ORD METAR and TAF weather

Enter ICAO airport designator
Station Type Date Time Source
KORD METAR 2021/09/24 01:51 UTC NOAA

KORD 240151Z 16003KT 10SM FEW070 FEW250 14/04 A2994 RMK AO2 SLP139 T01440044


Station Type Date Time Source
KORD Decoded METAR 2021/09/24 01:51 UTC NOAA

CHICAGO O'HARE INTERNATIONAL, IL, United States (KORD) 41-59N 087-55W 200M
Sep 23, 2021 - 09:51 PM EDT / 2021.09.24 0151 UTC
Wind: from the SSE (160 degrees) at 3 MPH (3 KT):0
Visibility: 10 mile(s):0
Sky conditions: mostly clear
Temperature: 57.9 F (14.4 C)
Dew Point: 39.9 F (4.4 C)
Relative Humidity: 50%
Pressure (altimeter): 29.94 in. Hg (1013 hPa)
ob: KORD 240151Z 16003KT 10SM FEW070 FEW250 14/04 A2994 RMK AO2 SLP139 T01440044
cycle: 2

Station Type Date Time Source
KORD TAF 2021/09/23 21:59 UTC NOAA

TAF
AMD KORD 232059Z 2321/2424 33015G22KT P6SM FEW050 BKN250
FM232300 33009KT P6SM SCT250
FM240200 26008KT P6SM SKC
FM241500 22010G17KT P6SM SCT250
FM241800 20015G24KT P6SM SCT200

Example: see airport list